Time;durP1;ratioP1;P1;durP2;ratioP2;P2;SDS_P1;SDS_P2;PMS_P1;PMS_P2;Temp;Humidity;BMP_temperature;BMP_pressure;BME280_temperature;BME280_humidity;BME280_pressure;Samples;Min_cycle;Max_cycle;Signal;HPM_P1;HPM_P2
2022/03/05 00:00:53;;;;;;;6.25;3.80;;;;;;;1.21;57.62;100367.70;1695096;82;20889;-69
2022/03/05 00:03:20;;;;;;;6.42;3.92;;;;;;;1.20;57.83;100369.52;1694258;82;21067;-69
2022/03/05 00:05:47;;;;;;;7.15;4.10;;;;;;;1.04;58.09;100364.12;1693297;83;21056;-70
2022/03/05 00:08:14;;;;;;;6.50;4.03;;;;;;;1.19;57.72;100368.42;1658716;83;21264;-70
2022/03/05 00:10:43;;;;;;;7.45;4.50;;;;;;;1.16;57.28;100369.12;1693460;83;21527;-70
2022/03/05 00:13:10;;;;;;;6.95;4.12;;;;;;;1.14;57.26;100370.31;1695360;83;21057;-70
2022/03/05 00:15:37;;;;;;;6.67;4.15;;;;;;;1.12;57.31;100366.58;1692967;83;21023;-71
2022/03/05 00:18:04;;;;;;;6.60;4.10;;;;;;;1.08;57.14;100368.48;1690379;83;21032;-70
2022/03/05 00:20:32;;;;;;;6.87;3.75;;;;;;;1.06;57.32;100369.20;1663359;83;22025;-71
2022/03/05 00:22:59;;;;;;;7.10;4.20;;;;;;;1.04;57.46;100369.89;1690325;83;21063;-70
2022/03/05 00:25:26;;;;;;;6.30;4.00;;;;;;;1.05;57.49;100371.00;1695906;83;21108;-70
2022/03/05 00:27:54;;;;;;;7.78;4.20;;;;;;;1.05;57.57;100368.37;1701711;82;21126;-69
2022/03/05 00:30:22;;;;;;;7.22;4.90;;;;;;;1.06;57.65;100373.95;1696248;83;21107;-70
2022/03/05 00:32:50;;;;;;;7.12;4.25;;;;;;;1.07;57.48;100368.19;1702164;82;21260;-70
2022/03/05 00:35:17;;;;;;;7.72;5.03;;;;;;;1.04;57.53;100368.58;1691390;83;20944;-70
2022/03/05 00:37:44;;;;;;;8.45;4.87;;;;;;;1.03;57.61;100370.41;1694025;83;21121;-70
2022/03/05 00:40:12;;;;;;;7.00;4.65;;;;;;;1.04;57.60;100372.02;1695579;82;21123;-70
2022/03/05 00:42:39;;;;;;;7.35;4.42;;;;;;;1.04;57.38;100370.70;1694435;82;21676;-70
2022/03/05 00:45:08;;;;;;;7.00;4.58;;;;;;;1.03;57.35;100365.66;1698114;82;21289;-69
2022/03/05 00:47:36;;;;;;;6.95;4.83;;;;;;;1.03;57.20;100365.14;1692090;83;21044;-71
2022/03/05 00:50:04;;;;;;;8.80;5.15;;;;;;;1.06;57.12;100371.32;1699467;82;21059;-71
2022/03/05 00:52:32;;;;;;;6.85;4.83;;;;;;;1.08;57.23;100375.05;1696012;82;21047;-70
2022/03/05 00:55:00;;;;;;;8.23;5.60;;;;;;;1.08;57.25;100370.59;1699498;82;21024;-72
2022/03/05 00:57:27;;;;;;;7.65;5.50;;;;;;;1.07;57.09;100371.62;1699016;82;21299;-70
2022/03/05 00:59:54;;;;;;;7.58;5.60;;;;;;;1.06;57.06;100363.43;1696289;82;22261;-70
2022/03/05 01:02:21;;;;;;;8.20;5.60;;;;;;;1.05;57.11;100363.11;1698349;82;21086;-70
2022/03/05 01:04:48;;;;;;;7.92;5.75;;;;;;;1.09;57.19;100372.75;1703335;82;21142;-70
2022/03/05 01:07:15;;;;;;;8.23;5.05;;;;;;;1.10;57.24;100371.22;1696571;83;21019;-70
2022/03/05 01:09:43;;;;;;;7.30;4.80;;;;;;;1.13;57.17;100375.28;1699166;82;21017;-69
2022/03/05 01:12:10;;;;;;;8.08;4.80;;;;;;;1.16;57.23;100374.88;1705354;82;20977;-70
2022/03/05 01:14:39;;;;;;;7.67;4.85;;;;;;;1.17;57.38;100374.67;1691158;82;21471;-69
2022/03/05 01:17:07;;;;;;;6.08;3.90;;;;;;;1.18;57.38;100372.84;1669856;85;21041;-69
2022/03/05 01:19:36;;;;;;;5.83;3.75;;;;;;;1.17;57.10;100368.09;1680700;84;21054;-70
2022/03/05 01:22:03;;;;;;;6.17;3.40;;;;;;;1.15;57.01;100370.14;1670704;83;21244;-70
2022/03/05 01:24:30;;;;;;;5.15;3.37;;;;;;;1.16;57.01;100367.80;1664391;83;21355;-70
2022/03/05 01:26:57;;;;;;;5.97;3.40;;;;;;;1.19;56.94;100368.42;1665142;84;21031;-70
2022/03/05 01:29:25;;;;;;;5.35;3.27;;;;;;;1.19;56.90;100367.11;1660043;83;21146;-71
2022/03/05 01:31:53;;;;;;;6.12;3.72;;;;;;;1.16;56.62;100365.17;1691138;82;21020;-70
2022/03/05 01:34:24;;;;;;;6.15;3.60;;;;;;;1.13;56.72;100372.14;1705813;82;21094;-69
2022/03/05 01:36:52;;;;;;;5.67;3.35;;;;;;;1.13;56.80;100360.81;1678072;84;21086;-68
2022/03/05 01:39:19;;;;;;;5.37;3.55;;;;;;;1.13;56.77;100368.20;1707067;82;21032;-70
2022/03/05 01:41:48;;;;;;;4.75;3.30;;;;;;;1.15;56.83;100368.81;1696178;82;21067;-71
2022/03/05 01:44:16;;;;;;;5.03;3.33;;;;;;;1.16;56.66;100363.86;1703145;82;21145;-69
2022/03/05 01:46:43;;;;;;;6.75;3.72;;;;;;;1.15;56.65;100364.03;1689497;83;21589;-70
2022/03/05 01:49:11;;;;;;;4.25;2.70;;;;;;;1.14;56.75;100361.11;1699141;82;20937;-70
2022/03/05 01:51:39;;;;;;;6.42;3.10;;;;;;;1.13;56.59;100358.98;1663704;83;21024;-69
2022/03/05 01:54:07;;;;;;;5.67;3.42;;;;;;;1.13;56.78;100358.19;1663689;83;21023;-70
2022/03/05 01:56:35;;;;;;;5.20;3.02;;;;;;;1.13;56.86;100358.98;1663688;83;21581;-70
2022/03/05 01:59:02;;;;;;;5.30;3.30;;;;;;;1.15;56.65;100367.98;1701203;82;21521;-71
2022/03/05 02:01:31;;;;;;;5.95;3.33;;;;;;;1.14;56.64;100361.91;1688632;82;21577;-70
2022/03/05 02:03:58;;;;;;;7.05;3.65;;;;;;;1.15;56.86;100361.41;1690187;83;21005;-70
2022/03/05 02:06:25;;;;;;;5.08;3.50;;;;;;;1.17;57.01;100365.47;1702034;82;21174;-71
2022/03/05 02:08:53;;;;;;;5.65;3.72;;;;;;;1.18;57.00;100361.01;1697917;82;21103;-70
2022/03/05 02:11:22;;;;;;;6.53;3.30;;;;;;;1.17;56.93;100363.34;1695979;82;21204;-70
2022/03/05 02:13:49;;;;;;;5.17;2.85;;;;;;;1.21;56.99;100370.33;1697139;82;21013;-69
2022/03/05 02:16:16;;;;;;;6.25;3.60;;;;;;;1.20;57.03;100370.03;1698489;82;21023;-70
2022/03/05 02:18:48;;;;;;;5.53;3.52;;;;;;;1.20;57.00;100380.05;1698524;82;21609;-69
2022/03/05 02:21:15;;;;;;;6.33;3.83;;;;;;;1.22;57.10;100375.89;1700767;82;21082;-69
2022/03/05 02:23:43;;;;;;;7.05;3.37;;;;;;;1.20;57.11;100380.05;1695019;83;21146;-70
2022/03/05 02:26:10;;;;;;;5.60;4.00;;;;;;;1.19;57.08;100380.26;1698454;83;21063;-69
2022/03/05 02:28:37;;;;;;;5.45;3.40;;;;;;;1.17;57.19;100369.92;1713693;82;21127;-70
2022/03/05 02:31:04;;;;;;;5.58;3.33;;;;;;;1.17;57.16;100373.36;1690760;82;21721;-69
2022/03/05 02:33:32;;;;;;;5.17;3.20;;;;;;;1.17;57.01;100375.98;1711735;82;21566;-70
2022/03/05 02:36:01;;;;;;;5.58;3.35;;;;;;;1.18;56.96;100393.89;1697479;82;21956;-70
2022/03/05 02:38:29;;;;;;;4.90;3.08;;;;;;;1.17;57.16;100371.23;1686934;83;21067;-69
2022/03/05 02:40:56;;;;;;;5.67;3.47;;;;;;;1.17;57.34;100375.19;1690437;83;21068;-70
2022/03/05 02:43:25;;;;;;;5.95;3.75;;;;;;;1.17;57.33;100366.78;1694208;83;21047;-70
2022/03/05 02:45:53;;;;;;;6.45;3.92;;;;;;;1.17;57.40;100379.13;1695881;82;21606;-70
2022/03/05 02:48:20;;;;;;;6.80;3.58;;;;;;;1.19;57.34;100379.75;1668239;83;21256;-70
2022/03/05 02:50:49;;;;;;;6.72;3.50;;;;;;;1.20;57.31;100383.19;1692731;83;21039;-69
2022/03/05 02:53:16;;;;;;;6.05;3.85;;;;;;;1.21;57.30;100384.80;1686748;83;21059;-70
2022/03/05 02:55:43;;;;;;;5.55;3.00;;;;;;;1.23;57.35;100399.89;1694057;83;21578;-70
2022/03/05 02:58:12;;;;;;;5.45;3.10;;;;;;;1.24;57.38;100393.09;1708572;82;21047;-69
2022/03/05 03:00:40;;;;;;;6.47;3.77;;;;;;;1.23;57.50;100389.37;1696141;82;21012;-70
2022/03/05 03:03:07;;;;;;;5.60;3.37;;;;;;;1.24;57.57;100387.84;1649210;85;21103;-70
2022/03/05 03:05:36;;;;;;;5.70;3.50;;;;;;;1.26;57.44;100394.23;1700327;82;21013;-70
2022/03/05 03:08:04;;;;;;;6.15;3.90;;;;;;;1.26;57.49;100396.86;1709883;82;21048;-71
2022/03/05 03:10:31;;;;;;;6.87;3.80;;;;;;;1.28;57.42;100400.89;1697771;83;21000;-70
2022/03/05 03:12:58;;;;;;;6.55;3.65;;;;;;;1.28;57.48;100396.95;1695446;82;21496;-71
2022/03/05 03:15:25;;;;;;;10.18;4.15;;;;;;;1.29;57.35;100391.20;1694359;83;21102;-71
2022/03/05 03:17:53;;;;;;;5.25;3.50;;;;;;;1.28;57.51;100393.52;1663214;85;21102;-70
2022/03/05 03:20:24;;;;;;;5.58;3.70;;;;;;;1.29;57.47;100405.67;1707940;82;21589;-71
2022/03/05 03:22:53;;;;;;;5.80;3.70;;;;;;;1.27;57.45;100399.80;1707798;83;21074;-70
2022/03/05 03:25:21;;;;;;;6.10;4.20;;;;;;;1.27;57.50;100394.02;1691402;82;21074;-70
2022/03/05 03:27:48;;;;;;;6.47;4.22;;;;;;;1.27;57.60;100399.80;1679501;82;21044;-70
2022/03/05 03:30:16;;;;;;;6.03;3.95;;;;;;;1.25;57.77;100405.75;1716414;82;21090;-70
2022/03/05 03:32:45;;;;;;;6.47;4.40;;;;;;;1.26;57.78;100400.30;1700308;83;21101;-69
2022/03/05 03:35:13;;;;;;;6.80;4.92;;;;;;;1.26;57.91;100416.59;1704945;82;21150;-71
2022/03/05 03:37:41;;;;;;;8.78;4.95;;;;;;;1.29;57.93;100406.48;1695525;83;21170;-71
2022/03/05 03:40:10;;;;;;;8.98;5.33;;;;;;;1.30;57.96;100412.55;1699332;82;21090;-70
2022/03/05 03:42:38;;;;;;;8.05;4.85;;;;;;;1.32;57.93;100415.80;1691639;82;21043;-71
2022/03/05 03:45:25;;;;;;;7.15;3.83;;;;;;;1.33;57.97;100411.64;1699150;82;21093;-70
2022/03/05 03:47:52;;;;;;;5.30;3.58;;;;;;;1.32;57.84;100415.80;1737017;80;21666;-69
2022/03/05 03:50:22;;;;;;;5.65;3.30;;;;;;;1.33;57.93;100414.78;1698588;81;21185;-69
2022/03/05 03:52:49;;;;;;;5.95;3.92;;;;;;;1.32;57.90;100411.86;1741947;80;21084;-69
2022/03/05 03:55:20;;;;;;;5.58;3.50;;;;;;;1.32;58.05;100411.34;1708907;81;21099;-70
2022/03/05 03:57:46;;;;;;;5.05;3.20;;;;;;;1.33;58.10;100417.42;1740594;80;21043;-71
2022/03/05 04:00:17;;;;;;;5.97;3.90;;;;;;;1.35;58.13;100415.38;1705423;81;21073;-70
2022/03/05 04:02:44;;;;;;;4.58;2.62;;;;;;;1.36;58.10;100419.14;1738890;80;21869;-70
2022/03/05 04:05:11;;;;;;;4.60;2.87;;;;;;;1.36;58.11;100423.09;1739805;80;21143;-70
2022/03/05 04:10:25;;;;;;;4.70;3.05;;;;;;;1.37;58.17;100425.21;1744018;80;21001;-71
2022/03/05 04:12:53;;;;;;;4.85;3.25;;;;;;;1.35;58.07;100432.00;1746461;80;21269;-69
2022/03/05 04:15:21;;;;;;;5.00;3.35;;;;;;;1.34;58.22;100435.62;1735394;80;21292;-69
2022/03/05 04:17:50;;;;;;;5.85;3.75;;;;;;;1.35;58.33;100432.48;1738414;80;21005;-70
2022/03/05 04:20:19;;;;;;;5.92;3.90;;;;;;;1.35;58.25;100436.43;1707259;81;21535;-69
2022/03/05 04:22:46;;;;;;;6.15;3.60;;;;;;;1.37;58.29;100438.37;1739135;80;20989;-69
2022/03/05 04:25:13;;;;;;;4.97;3.05;;;;;;;1.37;58.32;100439.17;1738198;80;21119;-69
2022/03/05 04:27:40;;;;;;;4.87;3.12;;;;;;;1.37;58.35;100439.17;1740364;80;21209;-70
2022/03/05 04:30:09;;;;;;;5.83;3.37;;;;;;;1.39;58.36;100449.01;1713079;81;21083;-70
2022/03/05 04:32:39;;;;;;;5.08;3.42;;;;;;;1.42;58.40;100445.17;1744354;80;21059;-70
2022/03/05 04:35:08;;;;;;;4.58;2.95;;;;;;;1.43;58.25;100446.78;1744181;80;21056;-69
2022/03/05 04:37:35;;;;;;;5.33;3.12;;;;;;;1.44;58.25;100456.80;1747335;79;21013;-69
2022/03/05 04:40:04;;;;;;;4.80;3.10;;;;;;;1.44;58.22;100460.24;1735509;80;21549;-70
2022/03/05 04:42:31;;;;;;;5.15;3.17;;;;;;;1.43;58.16;100458.63;1707869;81;21019;-70
2022/03/05 04:44:58;;;;;;;5.03;3.00;;;;;;;1.42;58.19;100456.21;1742382;80;21354;-70
2022/03/05 04:47:26;;;;;;;4.75;3.02;;;;;;;1.44;58.22;100464.19;1737107;80;21031;-68
2022/03/05 04:49:53;;;;;;;4.95;3.08;;;;;;;1.44;58.08;100470.77;1729484;80;21027;-69
2022/03/05 04:52:21;;;;;;;5.10;3.00;;;;;;;1.45;58.07;100467.63;1729882;80;21156;-70
2022/03/05 04:54:50;;;;;;;4.53;2.83;;;;;;;1.45;58.09;100473.73;1730107;80;21457;-71
2022/03/05 04:57:17;;;;;;;4.78;2.98;;;;;;;1.45;58.21;100470.26;1737133;80;21139;-71
2022/03/05 04:59:46;;;;;;;4.50;2.87;;;;;;;1.44;58.17;100469.96;1736048;80;21011;-71
2022/03/05 05:02:13;;;;;;;4.90;2.87;;;;;;;1.46;58.09;100474.53;1736922;80;21007;-68
2022/03/05 05:04:39;;;;;;;4.20;2.70;;;;;;;1.46;58.05;100484.55;1699718;81;21205;-69
2022/03/05 05:07:07;;;;;;;5.20;3.17;;;;;;;1.45;58.02;100481.63;1701172;81;21110;-70
2022/03/05 05:09:34;;;;;;;4.33;2.90;;;;;;;1.46;58.01;100493.77;1737748;80;21039;-70
2022/03/05 05:12:01;;;;;;;4.70;2.90;;;;;;;1.45;57.99;100496.10;1740264;80;21058;-70
2022/03/05 05:14:28;;;;;;;4.67;2.75;;;;;;;1.47;58.13;100494.06;1731299;80;21019;-70
2022/03/05 05:16:55;;;;;;;4.58;2.80;;;;;;;1.50;58.13;100500.25;1734478;80;21944;-70
2022/03/05 05:19:27;;;;;;;4.12;2.58;;;;;;;1.50;58.07;100502.07;1729734;80;20933;-70
2022/03/05 05:21:59;;;;;;;4.55;2.55;;;;;;;1.49;58.12;100506.53;1739820;80;21103;-68
2022/03/05 05:24:29;;;;;;;3.95;2.22;;;;;;;1.47;58.09;100507.73;1717080;81;21141;-70
2022/03/05 05:27:01;;;;;;;4.62;2.70;;;;;;;1.45;57.97;100521.11;1748637;80;21192;-69
2022/03/05 05:29:29;;;;;;;5.60;2.80;;;;;;;1.48;58.12;100515.92;1744026;80;21225;-70
2022/03/05 05:31:56;;;;;;;4.87;2.58;;;;;;;1.50;58.02;100510.78;1740657;80;22195;-69
2022/03/05 05:34:24;;;;;;;4.60;3.00;;;;;;;1.50;58.03;100517.36;1734942;80;20972;-70
2022/03/05 05:36:53;;;;;;;4.87;2.95;;;;;;;1.49;57.97;100517.06;1724029;80;21142;-69
2022/03/05 05:39:22;;;;;;;4.78;3.02;;;;;;;1.50;58.06;100517.36;1736843;80;20988;-68
2022/03/05 05:41:49;;;;;;;4.45;2.50;;;;;;;1.52;58.22;100518.49;1740983;80;21494;-70
2022/03/05 05:44:19;;;;;;;4.33;2.50;;;;;;;1.54;58.13;100526.47;1703475;82;37586;-70
2022/03/05 05:46:46;;;;;;;3.55;2.33;;;;;;;1.55;57.89;100526.80;1713431;81;21385;-69
2022/03/05 05:49:15;;;;;;;3.80;2.40;;;;;;;1.55;57.80;100532.58;1736517;80;21028;-68
2022/03/05 05:51:42;;;;;;;4.20;2.40;;;;;;;1.57;57.72;100534.48;1735014;80;20981;-70
2022/03/05 05:54:13;;;;;;;4.08;2.40;;;;;;;1.59;57.80;100530.66;1739834;80;21223;-69
2022/03/05 05:56:44;;;;;;;3.47;2.20;;;;;;;1.63;57.71;100531.87;1744071;80;21110;-70
2022/03/05 05:59:14;;;;;;;4.10;2.45;;;;;;;1.64;57.64;100540.06;1743147;80;21066;-70
2022/03/05 06:01:42;;;;;;;3.98;2.33;;;;;;;1.69;57.39;100545.27;1737709;80;21441;-70
2022/03/05 06:04:10;;;;;;;3.02;1.80;;;;;;;1.67;57.35;100528.84;1743892;80;21103;-69
2022/03/05 06:06:44;;;;;;;3.83;2.15;;;;;;;1.70;57.19;100536.34;1737728;80;21330;-70
2022/03/05 06:09:11;;;;;;;3.40;1.90;;;;;;;1.69;57.07;100539.48;1733523;80;21113;-71
2022/03/05 06:11:47;;;;;;;3.70;2.00;;;;;;;1.68;56.98;100541.83;1742448;80;21134;-70
2022/03/05 06:14:16;;;;;;;3.70;1.90;;;;;;;1.68;56.99;100539.67;1736893;80;21306;-69
2022/03/05 06:16:42;;;;;;;4.03;2.50;;;;;;;1.68;57.06;100550.20;1747451;80;21008;-69
2022/03/05 06:19:12;;;;;;;4.62;2.17;;;;;;;1.73;56.97;100562.28;1744819;81;21229;-70
2022/03/05 06:21:45;;;;;;;3.75;2.20;;;;;;;1.74;56.88;100550.73;1738396;80;21733;-68
2022/03/05 06:24:15;;;;;;;3.85;1.98;;;;;;;1.76;56.75;100559.25;1748108;80;22157;-70
2022/03/05 06:26:47;;;;;;;3.47;2.10;;;;;;;1.76;56.70;100559.25;1740101;80;21039;-70
2022/03/05 06:29:17;;;;;;;3.80;2.10;;;;;;;1.78;56.69;100565.14;1737503;80;21075;-71
2022/03/05 06:31:44;;;;;;;4.62;2.30;;;;;;;1.81;56.55;100571.30;1738664;82;21742;-70
2022/03/05 06:34:12;;;;;;;4.42;2.00;;;;;;;1.82;56.54;100579.02;1739919;82;21154;-71
2022/03/05 06:36:39;;;;;;;3.72;2.02;;;;;;;1.85;56.27;100572.55;1732061;80;21095;-71
2022/03/05 06:39:06;;;;;;;3.80;2.10;;;;;;;1.86;56.25;100581.55;1735092;80;21059;-70
2022/03/05 06:41:34;;;;;;;4.28;1.85;;;;;;;1.88;55.88;100572.16;1738045;80;21448;-70
2022/03/05 06:44:01;;;;;;;3.22;1.70;;;;;;;1.90;55.79;100578.53;1741764;80;21261;-71
2022/03/05 06:46:30;;;;;;;3.10;1.60;;;;;;;1.92;55.85;100579.16;1727970;80;21142;-70
2022/03/05 06:48:57;;;;;;;3.20;1.77;;;;;;;1.93;55.49;100574.98;1721365;82;21126;-71
2022/03/05 06:51:24;;;;;;;3.65;1.70;;;;;;;1.95;55.49;100578.24;1736573;80;21066;-70
2022/03/05 06:53:53;;;;;;;2.62;1.42;;;;;;;1.94;55.35;100580.58;1735706;80;20991;-69
2022/03/05 06:56:20;;;;;;;2.92;1.80;;;;;;;1.95;55.34;100578.75;1737980;80;21854;-71
2022/03/05 06:58:47;;;;;;;3.33;1.82;;;;;;;1.96;55.55;100585.13;1741474;80;20996;-71
2022/03/05 07:01:14;;;;;;;3.87;2.00;;;;;;;2.01;55.45;100584.03;1735189;80;21507;-72
2022/03/05 07:03:41;;;;;;;2.87;1.60;;;;;;;2.08;55.49;100581.41;1741434;80;21101;-72
2022/03/05 07:06:08;;;;;;;3.77;1.98;;;;;;;2.11;55.17;100588.41;1724730;82;21020;-71
2022/03/05 07:08:37;;;;;;;3.75;1.90;;;;;;;2.11;55.00;100589.73;1721850;82;21238;-70
2022/03/05 07:11:04;;;;;;;3.70;2.02;;;;;;;2.10;54.86;100589.40;1720266;82;21047;-70
2022/03/05 07:13:34;;;;;;;2.77;1.62;;;;;;;2.13;54.67;100600.56;1722458;80;21197;-71
2022/03/05 07:16:02;;;;;;;3.72;2.10;;;;;;;2.15;54.60;100603.81;1717835;82;21456;-70
2022/03/05 07:18:31;;;;;;;3.42;1.87;;;;;;;2.20;54.72;100599.55;1717916;82;21558;-72
2022/03/05 07:20:58;;;;;;;3.40;2.00;;;;;;;2.27;54.21;100596.92;1736962;80;21879;-72
2022/03/05 07:23:25;;;;;;;2.72;1.72;;;;;;;2.32;54.31;100598.46;1740895;80;21082;-71
2022/03/05 07:25:52;;;;;;;2.70;1.80;;;;;;;2.40;54.39;100598.25;1735084;80;21240;-69
2022/03/05 07:28:20;;;;;;;4.80;2.00;;;;;;;2.41;53.75;100594.62;1733528;80;21074;-71
2022/03/05 07:30:48;;;;;;;3.30;1.80;;;;;;;2.42;53.91;100597.55;1735002;80;21075;-71
2022/03/05 07:33:15;;;;;;;3.77;1.85;;;;;;;2.47;53.76;100596.45;1738420;80;22012;-71
2022/03/05 07:35:42;;;;;;;2.98;1.75;;;;;;;2.52;53.33;100604.55;1737397;80;20991;-71
2022/03/05 07:38:09;;;;;;;2.95;1.80;;;;;;;2.57;53.26;100604.77;1735838;80;21063;-71
2022/03/05 07:40:36;;;;;;;3.02;1.80;;;;;;;2.64;53.17;100609.23;1742049;80;21125;-71
2022/03/05 07:43:04;;;;;;;3.22;1.60;;;;;;;2.70;53.03;100612.34;1740198;80;21016;-70
2022/03/05 07:45:31;;;;;;;3.33;2.12;;;;;;;2.69;52.26;100600.19;1738124;81;21329;-71
2022/03/05 07:47:59;;;;;;;4.10;1.55;;;;;;;2.68;52.34;100611.25;1737265;80;21487;-71
2022/03/05 07:50:28;;;;;;;3.30;1.85;;;;;;;2.70;52.30;100605.27;1733726;80;21149;-69
2022/03/05 07:52:55;;;;;;;3.35;1.80;;;;;;;2.73;52.03;100606.67;1737971;80;21543;-71
2022/03/05 07:55:23;;;;;;;3.30;1.92;;;;;;;2.74;51.74;100608.31;1736419;80;21067;-71
2022/03/05 07:57:50;;;;;;;4.25;1.67;;;;;;;2.74;51.79;100599.08;1745980;80;21611;-70
2022/03/05 08:00:19;;;;;;;3.30;1.87;;;;;;;2.78;51.75;100600.29;1738683;80;21150;-70
2022/03/05 08:02:47;;;;;;;2.72;1.52;;;;;;;2.84;51.84;100603.95;1721602;82;21153;-70
2022/03/05 08:05:15;;;;;;;2.75;1.60;;;;;;;2.94;51.87;100610.93;1731221;80;21047;-70
2022/03/05 08:07:42;;;;;;;3.58;1.85;;;;;;;3.02;51.07;100609.38;1731988;80;20964;-71
2022/03/05 08:10:12;;;;;;;3.58;1.95;;;;;;;3.07;51.19;100608.78;1742968;80;21437;-72
2022/03/05 08:12:40;;;;;;;2.70;1.67;;;;;;;3.14;50.46;100610.89;1737418;80;20981;-71
2022/03/05 08:15:08;;;;;;;3.27;1.80;;;;;;;3.14;50.30;100617.49;1736545;80;21028;-73
2022/03/05 08:17:35;;;;;;;3.02;1.50;;;;;;;3.19;50.19;100619.82;1740235;80;21532;-72
2022/03/05 08:20:03;;;;;;;3.50;2.00;;;;;;;3.25;50.17;100620.80;1738086;80;20984;-71
2022/03/05 08:22:30;;;;;;;3.15;1.75;;;;;;;3.30;49.78;100619.69;1744229;80;20949;-71
2022/03/05 08:24:57;;;;;;;3.50;1.85;;;;;;;3.33;49.92;100621.11;1739084;80;20980;-73
2022/03/05 08:27:26;;;;;;;2.90;1.70;;;;;;;3.37;49.59;100618.34;1739429;80;21043;-71
2022/03/05 08:29:56;;;;;;;3.80;1.90;;;;;;;3.39;49.47;100613.17;1746539;80;21050;-70
2022/03/05 08:32:23;;;;;;;3.80;1.80;;;;;;;3.40;49.17;100615.30;1748803;80;21524;-72
2022/03/05 08:34:51;;;;;;;3.67;1.72;;;;;;;3.37;49.31;100625.75;1689936;83;21270;-71
2022/03/05 08:37:20;;;;;;;3.62;1.75;;;;;;;3.39;49.21;100617.13;1740002;80;21535;-72
2022/03/05 08:39:47;;;;;;;3.17;2.02;;;;;;;3.41;49.16;100628.27;1745183;81;21012;-70
2022/03/05 08:42:14;;;;;;;3.22;1.70;;;;;;;3.42;48.99;100629.08;1735140;80;21003;-71
2022/03/05 08:44:41;;;;;;;3.40;1.70;;;;;;;3.42;49.13;100629.91;1737768;80;21000;-71
2022/03/05 08:48:41;;;;;;;3.20;1.57;;;;;;;3.47;48.77;100630.60;1884766;75;21922;-74
2022/03/05 08:51:08;;;;;;;3.20;1.98;;;;;;;3.40;48.85;100643.83;1860747;77;20998;-71
2022/03/05 08:53:35;;;;;;;3.50;1.87;;;;;;;3.39;48.44;100638.73;1859836;77;21097;-71
2022/03/05 08:56:04;;;;;;;3.45;1.80;;;;;;;3.36;48.59;100637.34;1861376;77;20986;-70
2022/03/05 08:58:31;;;;;;;3.75;1.80;;;;;;;3.36;48.72;100632.58;1858185;77;21014;-74
2022/03/05 09:01:01;;;;;;;3.37;1.80;;;;;;;3.37;48.72;100638.95;1850486;75;20931;-75
2022/03/05 09:03:28;;;;;;;3.30;1.70;;;;;;;3.40;48.41;100652.26;1854474;77;21002;-71
2022/03/05 09:05:55;;;;;;;3.27;1.82;;;;;;;3.40;48.62;100649.10;1851814;77;21756;-70
2022/03/05 09:08:25;;;;;;;3.80;2.10;;;;;;;3.41;48.15;100650.72;1849859;75;21026;-75
2022/03/05 09:10:58;;;;;;;3.85;2.10;;;;;;;3.41;48.12;100653.36;1849422;75;21034;-73
2022/03/05 09:13:28;;;;;;;3.95;1.77;;;;;;;3.47;48.34;100651.21;1852808;77;20987;-75
2022/03/05 09:15:59;;;;;;;5.28;1.80;;;;;;;3.53;48.28;100656.18;1845053;75;21025;-71
2022/03/05 09:18:27;;;;;;;3.55;1.80;;;;;;;3.51;48.24;100665.61;1850119;77;21235;-70
2022/03/05 09:20:54;;;;;;;3.12;1.67;;;;;;;3.51;48.17;100662.97;1850395;77;21053;-70
2022/03/05 09:23:22;;;;;;;2.85;1.60;;;;;;;3.53;47.91;100666.23;1846564;77;21584;-74
2022/03/05 09:25:49;;;;;;;2.25;1.45;;;;;;;3.52;47.78;100667.26;1839651;77;20947;-74
2022/03/05 09:28:16;;;;;;;4.10;1.50;;;;;;;3.47;47.49;100664.41;1849749;75;21082;-70
2022/03/05 09:30:43;;;;;;;3.12;1.77;;;;;;;3.44;47.82;100664.02;1850436;77;21890;-73
2022/03/05 09:33:11;;;;;;;3.62;1.60;;;;;;;3.46;47.98;100666.77;1846908;77;21017;-71
2022/03/05 09:35:38;;;;;;;3.12;1.60;;;;;;;3.55;48.18;100673.12;1848297;75;21486;-70
2022/03/05 09:38:06;;;;;;;3.37;1.50;;;;;;;3.65;47.95;100676.98;1826358;78;21007;-71
2022/03/05 09:40:36;;;;;;;2.70;1.57;;;;;;;3.73;47.83;100679.89;1832862;77;20998;-72
2022/03/05 09:43:06;;;;;;;3.55;1.62;;;;;;;3.82;47.35;100671.20;1861056;77;21088;-71
2022/03/05 09:45:33;;;;;;;2.72;1.45;;;;;;;3.88;47.06;100671.20;1861013;77;21061;-71
2022/03/05 09:48:00;;;;;;;3.08;1.62;;;;;;;3.89;46.62;100668.84;1845336;76;20961;-72
2022/03/05 09:50:32;;;;;;;3.62;1.92;;;;;;;3.79;46.42;100669.81;1838224;77;20997;-76
2022/03/05 09:53:00;;;;;;;3.40;1.90;;;;;;;3.74;46.78;100673.58;1840156;76;20901;-75
2022/03/05 09:55:29;;;;;;;2.80;1.77;;;;;;;3.80;47.12;100677.22;1813291;77;21766;-74
2022/03/05 09:57:57;;;;;;;3.02;1.72;;;;;;;3.80;47.04;100679.86;1830585;77;21031;-72
2022/03/05 10:00:30;;;;;;;2.62;1.50;;;;;;;3.82;47.06;100677.80;1839690;76;20985;-72
2022/03/05 10:02:59;;;;;;;2.55;1.47;;;;;;;3.82;47.15;100672.03;1836728;76;21056;-71
2022/03/05 10:05:28;;;;;;;2.98;1.65;;;;;;;3.78;46.74;100668.17;1828144;77;21059;-73
2022/03/05 10:08:13;;;;;;;2.77;1.40;;;;;;;3.76;47.21;100671.55;1838689;76;21477;-73
2022/03/05 10:11:01;;;;;;;2.60;1.40;;;;;;;3.79;46.48;100677.73;1836253;76;21341;-73
2022/03/05 10:13:31;;;;;;;2.58;1.40;;;;;;;3.80;46.70;100681.19;1840203;76;20985;-71
2022/03/05 10:16:07;;;;;;;3.08;1.55;;;;;;;3.81;46.77;100678.31;1842286;76;21142;-70
2022/03/05 10:18:38;;;;;;;3.30;1.60;;;;;;;3.79;46.74;100677.73;1838752;77;21687;-70
2022/03/05 10:21:08;;;;;;;2.77;1.60;;;;;;;3.73;46.60;100676.73;1837461;76;20985;-70
2022/03/05 10:23:41;;;;;;;3.92;1.85;;;;;;;3.67;46.84;100683.36;1839343;76;21111;-71
2022/03/05 10:26:08;;;;;;;3.35;1.50;;;;;;;3.67;47.15;100683.36;1840175;77;20985;-71
2022/03/05 10:28:40;;;;;;;4.58;1.70;;;;;;;3.69;47.47;100683.97;1835781;77;21653;-71
2022/03/05 10:31:11;;;;;;;3.50;1.60;;;;;;;3.70;47.62;100681.63;1836262;77;21579;-72
2022/03/05 10:33:44;;;;;;;2.98;1.50;;;;;;;3.70;47.64;100685.58;1831384;76;21962;-71
2022/03/05 10:36:22;;;;;;;2.92;1.60;;;;;;;3.68;47.44;100684.45;1822434;77;20961;-72
2022/03/05 10:38:57;;;;;;;3.40;1.72;;;;;;;3.65;47.40;100691.50;1812171;77;20983;-72
2022/03/05 10:41:40;;;;;;;3.58;1.82;;;;;;;3.57;47.60;100686.43;1832318;77;21082;-70
2022/03/05 10:44:10;;;;;;;2.80;1.80;;;;;;;3.49;47.92;100684.03;1829943;77;21071;-70
2022/03/05 10:46:44;;;;;;;4.03;2.45;;;;;;;3.46;48.27;100692.36;1836403;76;21146;-71
2022/03/05 10:49:23;;;;;;;3.80;1.80;;;;;;;3.44;48.25;100689.11;1835000;77;21047;-70
2022/03/05 10:52:06;;;;;;;2.70;1.50;;;;;;;3.41;48.45;100686.88;1833463;77;21052;-72
2022/03/05 10:54:39;;;;;;;2.62;1.40;;;;;;;3.40;48.33;100686.06;1834503;77;20973;-69
2022/03/05 10:57:16;;;;;;;4.33;1.98;;;;;;;3.37;48.51;100687.80;1833483;77;21052;-72
2022/03/05 10:59:45;;;;;;;3.65;1.90;;;;;;;3.34;48.58;100696.12;1847192;77;21769;-72
2022/03/05 11:02:16;;;;;;;3.95;1.92;;;;;;;3.35;48.61;100683.73;1836614;76;21185;-71
2022/03/05 11:04:44;;;;;;;2.92;1.70;;;;;;;3.34;48.74;100685.56;1836244;76;21064;-70
2022/03/05 11:07:16;;;;;;;3.60;2.05;;;;;;;3.33;48.83;100688.43;1835913;77;21488;-70
2022/03/05 11:09:44;;;;;;;3.72;2.37;;;;;;;3.34;48.98;100686.89;1838758;76;21695;-70
2022/03/05 11:12:19;;;;;;;3.77;1.82;;;;;;;3.38;49.03;100688.61;1841454;76;21087;-72
2022/03/05 11:14:52;;;;;;;4.25;1.80;;;;;;;3.42;48.93;100694.61;1835038;77;21032;-72
2022/03/05 11:17:20;;;;;;;3.90;2.00;;;;;;;3.43;48.80;100692.77;1836799;76;21017;-70
2022/03/05 11:19:47;;;;;;;3.50;1.92;;;;;;;3.43;48.98;100684.85;1838144;76;21168;-71
2022/03/05 11:22:17;;;;;;;3.98;2.00;;;;;;;3.43;48.96;100676.93;1802835;77;21537;-73
2022/03/05 11:24:44;;;;;;;3.35;1.60;;;;;;;3.45;48.78;100691.53;1834301;77;21141;-72
2022/03/05 11:27:13;;;;;;;3.27;1.60;;;;;;;3.39;48.63;100684.45;1840326;76;21075;-71
2022/03/05 11:29:59;;;;;;;4.03;2.00;;;;;;;3.33;48.85;100683.95;1831544;77;21511;-71
2022/03/05 11:32:32;;;;;;;3.70;1.70;;;;;;;3.30;49.04;100684.36;1840991;76;21079;-71
2022/03/05 11:34:59;;;;;;;3.70;1.82;;;;;;;3.29;49.13;100681.40;1836498;76;21019;-71
2022/03/05 11:37:35;;;;;;;4.03;1.98;;;;;;;3.28;49.19;100688.52;1836419;76;21570;-73
2022/03/05 11:40:04;;;;;;;3.80;1.75;;;;;;;3.31;49.32;100687.30;1845123;76;21070;-71
2022/03/05 11:42:40;;;;;;;3.70;2.02;;;;;;;3.34;49.43;100686.08;1841977;76;20949;-72
2022/03/05 11:45:30;;;;;;;3.90;1.90;;;;;;;3.39;49.54;100679.66;1833531;76;21008;-70